Time;durP1;ratioP1;P1;durP2;ratioP2;P2;SDS_P1;SDS_P2;PMS_P1;PMS_P2;Temp;Humidity;BMP_temperature;BMP_pressure;BME280_temperature;BME280_humidity;BME280_pressure;Samples;Min_cycle;Max_cycle;Signal;HPM_P1;HPM_P2
2022/02/20 00:00:10;;;;;;;11.48;6.28;;;26.80;99.90;;;;;;4195435;28;20049;-71
2022/02/20 00:02:16;;;;;;;19.13;6.20;;;26.80;99.90;;;;;;4195679;28;20048;-70
2022/02/20 00:04:21;;;;;;;16.80;6.50;;;26.80;99.90;;;;;;4193796;28;20439;-74
2022/02/20 00:06:27;;;;;;;16.42;5.95;;;26.80;99.90;;;;;;4197124;28;20056;-74
2022/02/20 00:08:34;;;;;;;9.63;5.97;;;26.80;99.90;;;;;;4192632;28;20052;-72
2022/02/20 00:10:39;;;;;;;10.52;5.85;;;26.80;99.90;;;;;;4193338;28;20668;-71
2022/02/20 00:12:45;;;;;;;12.65;6.30;;;26.70;99.90;;;;;;4195695;28;20127;-70
2022/02/20 00:14:51;;;;;;;10.20;6.00;;;26.70;99.90;;;;;;4192890;28;20135;-72
2022/02/20 00:16:56;;;;;;;9.40;5.80;;;26.70;99.90;;;;;;4196890;28;20410;-71
2022/02/20 00:19:00;;;;;;;12.13;6.57;;;26.70;99.90;;;;;;4193831;28;20079;-69
2022/02/20 00:21:07;;;;;;;14.45;6.07;;;26.70;99.90;;;;;;4195446;28;20040;-70
2022/02/20 00:23:12;;;;;;;10.65;6.43;;;26.70;99.90;;;;;;4194837;28;20102;-69
2022/02/20 00:25:19;;;;;;;8.85;6.50;;;26.60;99.90;;;;;;4196076;28;21077;-69
2022/02/20 00:27:25;;;;;;;13.00;7.30;;;26.60;99.90;;;;;;4196337;28;20048;-69
2022/02/20 00:29:29;;;;;;;12.55;6.60;;;26.70;99.70;;;;;;4189185;28;20136;-70
2022/02/20 00:31:34;;;;;;;12.00;6.53;;;26.60;99.60;;;;;;4196454;28;20059;-70
2022/02/20 00:33:40;;;;;;;11.60;7.45;;;26.70;99.60;;;;;;4192195;28;20052;-69
2022/02/20 00:35:44;;;;;;;13.90;6.85;;;26.70;99.60;;;;;;4195365;28;20070;-70
2022/02/20 00:37:50;;;;;;;11.65;6.97;;;26.60;99.60;;;;;;4192166;28;20044;-69
2022/02/20 00:39:57;;;;;;;9.70;6.57;;;26.60;99.80;;;;;;4209586;28;20051;-68
2022/02/20 00:42:02;;;;;;;10.93;6.82;;;26.60;99.80;;;;;;4196270;28;20483;-70
2022/02/20 00:44:14;;;;;;;11.43;6.60;;;26.60;99.70;;;;;;4193925;28;20127;-70
2022/02/20 00:46:20;;;;;;;9.95;6.70;;;26.60;99.90;;;;;;4196157;28;20131;-71
2022/02/20 00:48:24;;;;;;;12.13;7.38;;;26.70;99.50;;;;;;4183972;28;20050;-70
2022/02/20 00:50:29;;;;;;;13.93;8.60;;;26.70;99.40;;;;;;4192767;28;20044;-70
2022/02/20 00:52:35;;;;;;;12.45;7.75;;;26.60;99.40;;;;;;4195139;28;20066;-71
2022/02/20 00:54:41;;;;;;;13.90;8.15;;;26.70;99.50;;;;;;4190932;28;20055;-71
2022/02/20 00:56:47;;;;;;;13.60;7.55;;;26.70;99.40;;;;;;4195868;28;20049;-71
2022/02/20 00:58:53;;;;;;;9.88;7.25;;;26.80;99.40;;;;;;4194051;28;20167;-71
2022/02/20 01:00:58;;;;;;;12.52;7.82;;;26.90;99.30;;;;;;4187124;28;20063;-70
2022/02/20 01:03:06;;;;;;;11.50;7.10;;;26.90;99.30;;;;;;4194274;28;20135;-69
2022/02/20 01:05:12;;;;;;;12.40;7.28;;;26.90;99.10;;;;;;4208801;28;20150;-71
2022/02/20 01:07:18;;;;;;;14.05;6.93;;;26.90;98.80;;;;;;4195027;28;20113;-70
2022/02/20 01:09:23;;;;;;;16.17;8.40;;;26.90;98.70;;;;;;4192188;28;20053;-70
2022/02/20 01:11:32;;;;;;;11.50;7.50;;;26.90;98.80;;;;;;4186760;28;20048;-70
2022/02/20 01:13:37;;;;;;;14.35;7.40;;;26.80;98.80;;;;;;4189306;28;20714;-71
2022/02/20 01:15:41;;;;;;;13.40;7.63;;;26.70;98.70;;;;;;4189866;28;20376;-71
2022/02/20 01:17:48;;;;;;;13.25;7.57;;;26.70;98.50;;;;;;4194986;28;20090;-72
2022/02/20 01:19:53;;;;;;;14.73;7.80;;;26.60;98.40;;;;;;4193109;28;20076;-71
2022/02/20 01:21:57;;;;;;;12.20;6.80;;;26.60;98.50;;;;;;4194575;28;20055;-71
2022/02/20 01:24:01;;;;;;;11.07;7.15;;;26.70;98.60;;;;;;4186924;28;20044;-70
2022/02/20 01:26:06;;;;;;;15.02;7.43;;;26.70;98.60;;;;;;4195660;28;20045;-70
2022/02/20 01:28:12;;;;;;;15.40;7.53;;;26.70;98.60;;;;;;4193791;28;20056;-70
2022/02/20 01:30:19;;;;;;;13.02;7.07;;;26.70;98.40;;;;;;4192447;28;20159;-70
2022/02/20 01:32:23;;;;;;;14.27;7.45;;;26.70;98.30;;;;;;4194636;28;20570;-71
2022/02/20 01:34:34;;;;;;;11.23;6.72;;;26.80;98.40;;;;;;4190544;28;20040;-72
2022/02/20 01:38:01;;;;;;;17.13;12.55;;;26.90;98.20;;;;;;4154961;28;20529;-70
2022/02/20 01:40:06;;;;;;;13.00;10.20;;;27.00;98.20;;;;;;4164959;28;20147;-71
2022/02/20 01:42:10;;;;;;;15.02;10.23;;;27.10;98.10;;;;;;4169870;28;20049;-70
2022/02/20 01:44:17;;;;;;;14.80;7.82;;;27.10;97.90;;;;;;4174197;28;20152;-70
2022/02/20 01:46:23;;;;;;;9.20;7.55;;;27.20;97.70;;;;;;4160520;28;20362;-70
2022/02/20 01:48:35;;;;;;;10.85;8.68;;;27.20;97.60;;;;;;4173182;28;20046;-70
2022/02/20 01:50:42;;;;;;;11.90;8.68;;;27.30;97.50;;;;;;4172050;28;20130;-71
2022/02/20 01:52:47;;;;;;;14.32;8.18;;;27.30;97.30;;;;;;4172220;28;20068;-73
2022/02/20 01:54:54;;;;;;;10.38;7.55;;;27.40;97.30;;;;;;4161423;28;20049;-71
2022/02/20 01:57:02;;;;;;;14.82;8.23;;;27.40;97.20;;;;;;4158711;28;20053;-71
2022/02/20 01:59:20;;;;;;;9.48;7.22;;;27.40;96.90;;;;;;4166667;28;20059;-70
2022/02/20 02:01:45;;;;;;;10.55;7.22;;;27.30;96.90;;;;;;4169428;28;20053;-71
2022/02/20 02:04:10;;;;;;;10.65;6.40;;;27.20;97.00;;;;;;4167037;28;20045;-70
2022/02/20 02:06:24;;;;;;;11.43;6.72;;;27.30;96.90;;;;;;4167082;28;20080;-70
2022/02/20 02:08:31;;;;;;;9.07;6.68;;;27.30;97.00;;;;;;4169597;28;20049;-71
2022/02/20 02:10:48;;;;;;;14.38;6.40;;;27.20;96.80;;;;;;4170979;28;20045;-70
2022/02/20 02:13:15;;;;;;;8.27;6.47;;;27.20;96.90;;;;;;4173083;28;20055;-70
2022/02/20 02:15:31;;;;;;;9.10;6.22;;;27.20;96.80;;;;;;4171942;28;20396;-69
2022/02/20 02:17:57;;;;;;;7.13;5.60;;;27.10;97.00;;;;;;4173618;28;20038;-70
2022/02/20 02:20:15;;;;;;;10.27;6.25;;;27.10;97.00;;;;;;4171700;28;20080;-72
2022/02/20 02:22:32;;;;;;;10.18;6.05;;;27.10;96.80;;;;;;4171728;28;20033;-71
2022/02/20 02:24:48;;;;;;;11.35;6.07;;;27.10;96.80;;;;;;4172635;28;20594;-71
2022/02/20 02:27:03;;;;;;;9.98;5.97;;;27.10;97.00;;;;;;4179466;28;20097;-71
2022/02/20 02:29:19;;;;;;;10.77;6.07;;;27.10;96.50;;;;;;4171939;28;20072;-71
2022/02/20 02:31:24;;;;;;;8.10;6.18;;;27.10;96.80;;;;;;4175647;28;20365;-71
2022/02/20 02:33:33;;;;;;;8.40;5.55;;;27.10;96.50;;;;;;4206521;28;20068;-71
2022/02/20 02:35:37;;;;;;;9.65;5.65;;;27.20;96.60;;;;;;4207560;28;20048;-71
2022/02/20 02:37:43;;;;;;;8.82;5.88;;;27.30;96.40;;;;;;4168524;28;20053;-71
2022/02/20 02:39:48;;;;;;;14.50;6.22;;;27.40;96.40;;;;;;4172167;28;20033;-71
2022/02/20 02:41:53;;;;;;;8.45;5.82;;;27.50;96.20;;;;;;4176171;28;20136;-71
2022/02/20 02:44:03;;;;;;;11.38;5.47;;;27.50;96.00;;;;;;4204770;28;20056;-71
2022/02/20 02:46:08;;;;;;;9.43;5.78;;;27.50;96.00;;;;;;4171886;28;20064;-71
2022/02/20 02:48:13;;;;;;;8.63;5.47;;;27.60;96.00;;;;;;4154951;28;20042;-71
2022/02/20 02:50:19;;;;;;;7.25;4.95;;;27.60;95.80;;;;;;4163638;28;20065;-71
2022/02/20 02:52:29;;;;;;;8.70;5.70;;;27.50;95.90;;;;;;4161236;28;20416;-71
2022/02/20 02:54:35;;;;;;;11.25;5.90;;;27.60;95.80;;;;;;4159910;28;20053;-71
2022/02/20 02:56:44;;;;;;;10.40;5.60;;;27.70;95.60;;;;;;4157932;28;20411;-73
2022/02/20 02:58:50;;;;;;;11.30;6.00;;;27.70;95.70;;;;;;4161526;28;20033;-71
2022/02/20 03:00:56;;;;;;;9.68;6.15;;;27.90;95.70;;;;;;4161672;28;20034;-72
2022/02/20 03:03:02;;;;;;;10.77;5.82;;;28.00;95.50;;;;;;4161490;28;20649;-71
2022/02/20 03:05:09;;;;;;;8.20;5.55;;;28.00;95.30;;;;;;4165155;28;20511;-71
2022/02/20 03:07:16;;;;;;;7.97;5.13;;;28.00;95.30;;;;;;4153522;28;20080;-72
2022/02/20 03:09:21;;;;;;;8.65;5.07;;;28.10;95.30;;;;;;4153653;28;20049;-70
2022/02/20 03:11:26;;;;;;;10.13;5.05;;;28.10;95.30;;;;;;4155726;28;20132;-71
2022/02/20 03:13:32;;;;;;;7.47;5.50;;;28.30;95.20;;;;;;4166208;28;20384;-71
2022/02/20 03:15:45;;;;;;;8.88;5.32;;;28.30;95.10;;;;;;4165754;28;20392;-71
2022/02/20 03:17:50;;;;;;;8.75;5.50;;;28.40;95.00;;;;;;4159819;28;20049;-71
2022/02/20 03:19:54;;;;;;;10.25;5.60;;;28.40;94.90;;;;;;4163464;28;20065;-71
2022/02/20 03:21:59;;;;;;;9.52;5.80;;;28.50;94.90;;;;;;4160988;28;20099;-71
2022/02/20 03:24:11;;;;;;;11.20;5.65;;;28.50;94.90;;;;;;4150162;28;20138;-71
2022/02/20 03:26:22;;;;;;;8.63;6.20;;;28.50;94.70;;;;;;4156333;28;20124;-71
2022/02/20 03:28:32;;;;;;;9.50;5.22;;;28.60;94.70;;;;;;4159206;28;20104;-71
2022/02/20 03:30:41;;;;;;;7.35;5.63;;;28.60;94.70;;;;;;4159820;28;20049;-70
2022/02/20 03:32:50;;;;;;;10.85;5.60;;;28.70;94.60;;;;;;4159437;28;20049;-71
2022/02/20 03:35:02;;;;;;;9.68;5.70;;;28.70;94.60;;;;;;4152285;28;20930;-71
2022/02/20 03:37:14;;;;;;;8.13;5.57;;;28.60;94.40;;;;;;4159888;28;20107;-71
2022/02/20 03:39:18;;;;;;;8.52;5.90;;;28.70;94.40;;;;;;4157211;28;20060;-71
2022/02/20 03:41:23;;;;;;;11.35;5.57;;;28.80;94.40;;;;;;4158864;28;20049;-71
2022/02/20 03:43:28;;;;;;;9.65;6.15;;;28.90;94.50;;;;;;4162960;28;20128;-71
2022/02/20 03:45:37;;;;;;;8.45;6.15;;;29.00;94.40;;;;;;4161157;28;20458;-71
2022/02/20 03:47:42;;;;;;;10.48;6.88;;;29.10;94.30;;;;;;4162090;28;20447;-71
2022/02/20 03:49:47;;;;;;;8.18;5.82;;;29.00;94.20;;;;;;4162863;28;20167;-71
2022/02/20 03:52:11;;;;;;;10.30;6.38;;;29.00;94.20;;;;;;4161744;28;20077;-71
2022/02/20 03:54:21;;;;;;;8.60;5.97;;;29.20;94.20;;;;;;4161511;28;20053;-71
2022/02/20 03:56:26;;;;;;;10.55;6.03;;;29.10;94.40;;;;;;4161476;28;20081;-71
2022/02/20 03:58:32;;;;;;;13.65;6.65;;;29.20;94.20;;;;;;4162334;28;20072;-71
2022/02/20 04:00:40;;;;;;;11.13;6.28;;;29.20;94.20;;;;;;4159567;28;20573;-71
2022/02/20 04:03:04;;;;;;;9.02;5.97;;;29.20;94.30;;;;;;4157524;28;20080;-70
2022/02/20 04:05:12;;;;;;;9.65;6.05;;;29.30;94.10;;;;;;4188609;28;20075;-72
2022/02/20 04:07:18;;;;;;;11.13;5.57;;;29.40;94.00;;;;;;4158325;28;20056;-71
2022/02/20 04:09:23;;;;;;;9.52;5.70;;;29.40;93.90;;;;;;4158416;28;20109;-71
2022/02/20 04:11:28;;;;;;;6.50;5.75;;;29.40;93.90;;;;;;4159375;28;20553;-71
2022/02/20 04:13:44;;;;;;;8.43;6.10;;;29.40;93.90;;;;;;4160894;28;20090;-71
2022/02/20 04:15:57;;;;;;;7.18;5.38;;;29.40;93.80;;;;;;4160632;28;20069;-71
2022/02/20 04:18:07;;;;;;;14.77;5.82;;;29.30;93.90;;;;;;4190670;28;20110;-71
2022/02/20 04:20:16;;;;;;;7.82;5.70;;;29.30;94.10;;;;;;4161166;28;20053;-71
2022/02/20 04:22:27;;;;;;;10.35;5.47;;;29.40;93.90;;;;;;4161562;28;20112;-71
2022/02/20 04:24:33;;;;;;;10.68;6.38;;;29.50;93.90;;;;;;4161076;28;20040;-71
2022/02/20 04:26:45;;;;;;;13.88;7.53;;;29.60;93.80;;;;;;4162407;28;20045;-71
2022/02/20 04:29:02;;;;;;;16.15;9.18;;;29.50;93.70;;;;;;4160684;28;20053;-71
2022/02/20 04:31:10;;;;;;;17.17;9.32;;;29.60;93.60;;;;;;4157360;28;20041;-72
2022/02/20 04:33:17;;;;;;;12.13;7.70;;;29.60;93.50;;;;;;4161632;28;20123;-72
2022/02/20 04:35:26;;;;;;;14.27;7.13;;;29.50;93.70;;;;;;4145088;28;20054;-72
2022/02/20 04:37:31;;;;;;;13.55;7.50;;;29.50;93.60;;;;;;4157910;28;20607;-71
2022/02/20 04:39:38;;;;;;;10.55;6.68;;;29.40;93.70;;;;;;4192158;28;20058;-71
2022/02/20 04:41:44;;;;;;;10.23;6.45;;;29.50;93.90;;;;;;4159148;28;20034;-71
2022/02/20 04:43:55;;;;;;;12.90;7.05;;;29.50;93.80;;;;;;4160429;28;20670;-72
2022/02/20 04:46:01;;;;;;;9.55;6.82;;;29.40;93.60;;;;;;4160953;28;20546;-72
2022/02/20 04:48:08;;;;;;;11.35;6.53;;;29.30;93.70;;;;;;4161335;28;20049;-72
2022/02/20 04:50:13;;;;;;;9.50;6.00;;;29.30;93.90;;;;;;4154321;28;20193;-72
2022/02/20 04:52:20;;;;;;;9.27;5.90;;;29.20;93.90;;;;;;4160022;28;20374;-72
2022/02/20 04:54:46;;;;;;;10.60;6.30;;;29.20;93.70;;;;;;4158362;28;20052;-72
2022/02/20 04:56:55;;;;;;;12.23;5.53;;;29.20;93.30;;;;;;4159191;28;20619;-71
2022/02/20 04:59:01;;;;;;;8.77;5.50;;;29.20;93.30;;;;;;4158018;28;20097;-71
2022/02/20 05:01:18;;;;;;;10.88;6.25;;;29.40;93.40;;;;;;4156524;28;20053;-71
2022/02/20 05:03:41;;;;;;;8.27;5.45;;;29.40;93.20;;;;;;4159527;28;20044;-71
2022/02/20 05:05:57;;;;;;;12.43;6.18;;;29.60;93.60;;;;;;4157252;28;20072;-68
2022/02/20 05:08:17;;;;;;;10.45;5.75;;;29.80;93.60;;;;;;4161670;28;20065;-70
2022/02/20 05:10:24;;;;;;;10.80;6.20;;;29.90;93.30;;;;;;4159846;28;20440;-68
2022/02/20 05:12:31;;;;;;;7.68;5.53;;;30.00;93.00;;;;;;4156693;28;20042;-69
2022/02/20 05:14:38;;;;;;;9.75;5.40;;;30.10;92.90;;;;;;4153453;28;20436;-69
2022/02/20 05:17:06;;;;;;;7.78;6.00;;;30.10;92.90;;;;;;4155120;28;20099;-69
2022/02/20 05:19:30;;;;;;;7.28;5.28;;;30.10;92.80;;;;;;4157700;28;20515;-68
2022/02/20 05:21:37;;;;;;;8.52;5.50;;;30.20;92.80;;;;;;4159790;28;20061;-70
2022/02/20 05:23:43;;;;;;;6.82;5.32;;;30.30;92.60;;;;;;4163001;28;20047;-69
2022/02/20 05:25:48;;;;;;;9.90;5.70;;;30.40;92.40;;;;;;4159985;28;20041;-71
2022/02/20 05:27:53;;;;;;;10.32;5.82;;;30.20;92.20;;;;;;4190808;28;20135;-69
2022/02/20 05:30:07;;;;;;;10.25;5.95;;;30.10;92.30;;;;;;4176243;28;20036;-68
2022/02/20 05:32:23;;;;;;;9.20;5.95;;;30.10;92.10;;;;;;4154874;28;20152;-67
2022/02/20 05:34:33;;;;;;;9.13;6.50;;;30.10;92.20;;;;;;4186347;28;20506;-67
2022/02/20 05:36:38;;;;;;;9.40;5.75;;;30.20;92.20;;;;;;4157645;28;20136;-68
2022/02/20 05:38:51;;;;;;;7.40;5.75;;;30.10;92.30;;;;;;4155919;28;20127;-68
2022/02/20 05:40:59;;;;;;;7.63;6.18;;;30.10;92.20;;;;;;4158351;28;20104;-69
2022/02/20 05:43:05;;;;;;;9.00;5.72;;;30.10;92.50;;;;;;4158467;28;20037;-68
2022/02/20 05:45:14;;;;;;;8.23;6.15;;;30.00;92.50;;;;;;4157360;28;20057;-68
2022/02/20 05:47:20;;;;;;;9.48;6.00;;;30.10;92.30;;;;;;4157263;28;20041;-68
2022/02/20 05:49:26;;;;;;;9.13;6.28;;;30.20;92.50;;;;;;4147313;28;20046;-68
2022/02/20 05:51:37;;;;;;;8.35;6.45;;;30.10;92.60;;;;;;4153477;28;20160;-68
2022/02/20 05:53:54;;;;;;;9.98;6.38;;;30.10;92.30;;;;;;4166502;28;20112;-69
2022/02/20 05:56:01;;;;;;;9.10;5.82;;;30.00;92.10;;;;;;4157704;28;20033;-69
2022/02/20 05:58:20;;;;;;;11.43;6.40;;;30.10;92.10;;;;;;4157860;28;20045;-69
2022/02/20 06:00:33;;;;;;;9.20;6.43;;;30.10;92.10;;;;;;4159842;28;20057;-68
2022/02/20 06:02:40;;;;;;;8.43;6.25;;;30.20;92.10;;;;;;4158259;28;20073;-68
2022/02/20 06:04:46;;;;;;;10.10;6.40;;;30.30;91.90;;;;;;4163923;28;20041;-69
2022/02/20 06:07:05;;;;;;;8.93;5.82;;;30.50;91.90;;;;;;4157794;28;20045;-69
2022/02/20 06:09:10;;;;;;;10.15;6.20;;;30.50;91.90;;;;;;4147694;28;20041;-69
2022/02/20 06:11:26;;;;;;;12.75;9.05;;;30.60;91.90;;;;;;4152591;28;21130;-68
2022/02/20 06:13:45;;;;;;;10.73;7.60;;;30.60;91.90;;;;;;4157356;28;20057;-68
2022/02/20 06:16:03;;;;;;;8.45;7.40;;;30.60;91.90;;;;;;4158402;28;20047;-68
2022/02/20 06:18:17;;;;;;;9.40;6.53;;;30.60;91.90;;;;;;4157185;28;20508;-68
2022/02/20 06:20:35;;;;;;;11.35;6.05;;;30.60;91.70;;;;;;4159373;28;20102;-68
2022/02/20 06:22:59;;;;;;;11.73;6.90;;;30.60;91.60;;;;;;4158019;28;20041;-68
2022/02/20 06:25:19;;;;;;;11.27;6.65;;;30.50;91.60;;;;;;4161946;28;20054;-70
2022/02/20 06:27:29;;;;;;;11.32;7.15;;;30.50;91.50;;;;;;4157203;28;20478;-69
2022/02/20 06:29:55;;;;;;;10.95;7.03;;;30.60;91.70;;;;;;4191127;28;20048;-68
2022/02/20 06:32:02;;;;;;;9.80;6.72;;;30.60;91.60;;;;;;4161485;28;20132;-69
2022/02/20 06:34:10;;;;;;;9.63;6.65;;;30.60;91.70;;;;;;4159382;28;20389;-69
2022/02/20 06:36:14;;;;;;;12.93;7.38;;;30.80;91.50;;;;;;4162061;28;20103;-70
2022/02/20 06:38:24;;;;;;;11.07;7.35;;;30.90;91.40;;;;;;4163305;28;20782;-69
2022/02/20 06:40:31;;;;;;;13.20;7.38;;;30.90;91.70;;;;;;4158484;28;20535;-70
2022/02/20 06:42:36;;;;;;;13.30;6.50;;;31.00;91.40;;;;;;4158574;28;20052;-70
2022/02/20 06:44:50;;;;;;;12.27;7.50;;;31.00;91.40;;;;;;4161262;28;20490;-70
2022/02/20 06:47:11;;;;;;;9.05;6.20;;;31.00;91.30;;;;;;4162309;28;20033;-70
2022/02/20 06:49:33;;;;;;;;;;;30.90;91.00;;;;;;4161102;28;20500;-69
2022/02/20 06:51:46;;;;;;;9.73;6.50;;;30.80;91.00;;;;;;4158844;28;20561;-70
2022/02/20 06:54:10;;;;;;;9.05;6.40;;;30.80;90.90;;;;;;4158594;28;20041;-70
2022/02/20 06:56:22;;;;;;;8.27;6.57;;;30.50;91.10;;;;;;4146273;28;20077;-70
2022/02/20 06:58:32;;;;;;;9.35;6.35;;;30.50;91.40;;;;;;4161676;28;20049;-71
2022/02/20 07:00:40;;;;;;;10.10;6.35;;;30.50;91.60;;;;;;4161450;28;20129;-70
2022/02/20 07:02:45;;;;;;;8.40;6.18;;;30.50;91.30;;;;;;4161535;28;20057;-70
2022/02/20 07:04:51;;;;;;;8.77;6.47;;;30.50;91.30;;;;;;4151939;28;20053;-70
2022/02/20 07:06:58;;;;;;;8.80;6.55;;;30.60;91.50;;;;;;4167159;28;20054;-69
2022/02/20 07:09:02;;;;;;;9.20;6.55;;;30.50;91.10;;;;;;4162901;28;20045;-69
2022/02/20 07:11:08;;;;;;;10.05;6.55;;;30.40;91.10;;;;;;4156983;28;20079;-69
2022/02/20 07:13:15;;;;;;;9.07;6.07;;;30.50;91.20;;;;;;4163939;28;20403;-69
2022/02/20 07:15:19;;;;;;;9.88;6.40;;;30.50;91.40;;;;;;4166422;28;20053;-69
2022/02/20 07:17:26;;;;;;;9.13;6.32;;;30.50;91.50;;;;;;4159687;28;20045;-69
2022/02/20 07:19:33;;;;;;;9.25;6.20;;;30.40;91.60;;;;;;4162026;28;20099;-69
2022/02/20 07:21:37;;;;;;;8.48;6.32;;;30.40;91.40;;;;;;4162099;28;20125;-69
2022/02/20 07:23:43;;;;;;;8.95;5.95;;;30.40;91.60;;;;;;4162702;28;20083;-69
2022/02/20 07:25:50;;;;;;;10.15;6.55;;;30.30;91.20;;;;;;4164236;28;20041;-69
2022/02/20 07:27:54;;;;;;;9.00;6.38;;;30.20;91.10;;;;;;4161498;28;20069;-68
2022/02/20 07:30:02;;;;;;;17.58;6.47;;;30.20;91.00;;;;;;4157898;28;20052;-69
2022/02/20 07:32:10;;;;;;;14.20;6.50;;;30.20;91.10;;;;;;4158443;28;20432;-69
2022/02/20 07:34:15;;;;;;;9.85;6.43;;;30.20;91.20;;;;;;4161997;28;20061;-68
2022/02/20 07:36:21;;;;;;;9.60;6.80;;;30.10;91.50;;;;;;4162271;28;20045;-67
2022/02/20 07:38:28;;;;;;;9.18;6.45;;;30.00;91.80;;;;;;4162951;28;20123;-69
2022/02/20 07:40:34;;;;;;;10.18;6.90;;;30.00;91.90;;;;;;4161770;28;20071;-69
2022/02/20 07:42:40;;;;;;;13.65;6.15;;;30.00;92.20;;;;;;4163042;28;20594;-68
2022/02/20 07:44:47;;;;;;;10.18;6.20;;;29.90;91.90;;;;;;4187613;28;20055;-68
2022/02/20 07:46:51;;;;;;;8.93;6.15;;;29.90;91.80;;;;;;4157275;28;20049;-68
2022/02/20 07:48:58;;;;;;;11.07;6.28;;;29.80;91.50;;;;;;4159454;28;20049;-68
2022/02/20 07:51:05;;;;;;;9.55;5.63;;;29.80;91.50;;;;;;4162451;28;20037;-68
2022/02/20 07:53:11;;;;;;;9.57;6.15;;;29.70;91.30;;;;;;4158459;28;20053;-68
2022/02/20 07:55:17;;;;;;;9.10;6.32;;;29.60;91.60;;;;;;4161057;28;20049;-68
2022/02/20 07:57:24;;;;;;;9.20;5.93;;;29.60;91.40;;;;;;4127084;28;20109;-68
2022/02/20 07:59:28;;;;;;;7.95;6.15;;;29.50;91.40;;;;;;4160847;28;20073;-68
2022/02/20 08:01:36;;;;;;;8.88;6.15;;;29.50;91.60;;;;;;4156876;28;20730;-68
2022/02/20 08:03:42;;;;;;;7.93;6.05;;;29.60;91.70;;;;;;4158633;28;20046;-68
2022/02/20 08:05:47;;;;;;;7.18;5.15;;;29.60;91.40;;;;;;4187464;28;20048;-68
2022/02/20 08:07:53;;;;;;;7.63;5.28;;;29.70;91.10;;;;;;4157496;28;20128;-68
2022/02/20 08:09:59;;;;;;;9.05;5.60;;;29.80;90.90;;;;;;4167277;28;20049;-69
2022/02/20 08:12:04;;;;;;;7.32;5.30;;;29.90;90.90;;;;;;4163696;28;20527;-68
2022/02/20 08:14:10;;;;;;;8.57;4.93;;;29.90;91.00;;;;;;4159618;28;20780;-69
2022/02/20 08:16:17;;;;;;;10.55;5.82;;;29.80;90.70;;;;;;4161951;28;20084;-68
2022/02/20 08:18:21;;;;;;;9.57;5.53;;;29.80;90.80;;;;;;4161546;28;20041;-68
2022/02/20 08:20:28;;;;;;;9.05;5.30;;;29.70;90.60;;;;;;4160977;28;20552;-68
2022/02/20 08:22:34;;;;;;;8.70;6.00;;;29.60;90.60;;;;;;4161656;28;20045;-69
2022/02/20 08:24:38;;;;;;;8.75;5.20;;;29.60;90.70;;;;;;4165974;28;20573;-68
2022/02/20 08:26:45;;;;;;;8.05;5.60;;;29.60;90.80;;;;;;4166817;28;20637;-67
2022/02/20 08:28:53;;;;;;;7.35;5.60;;;29.60;90.80;;;;;;4160367;28;20136;-68
2022/02/20 08:30:57;;;;;;;7.32;5.57;;;29.60;90.50;;;;;;4162404;28;20048;-68
2022/02/20 08:33:05;;;;;;;10.93;6.10;;;29.40;90.80;;;;;;4150430;28;20041;-68
2022/02/20 08:35:12;;;;;;;10.20;5.93;;;29.30;90.80;;;;;;4160905;28;20110;-68
2022/02/20 08:37:16;;;;;;;9.45;5.53;;;29.30;90.80;;;;;;4155445;28;20068;-68
2022/02/20 08:39:23;;;;;;;9.27;5.65;;;29.30;90.90;;;;;;4158045;28;20132;-67
2022/02/20 08:41:29;;;;;;;7.68;6.00;;;29.30;91.00;;;;;;4156148;28;20061;-68
2022/02/20 08:43:34;;;;;;;8.27;5.65;;;29.30;91.10;;;;;;4158554;28;20092;-68
2022/02/20 08:45:40;;;;;;;8.13;6.32;;;29.20;91.30;;;;;;4163635;28;20046;-67
2022/02/20 08:47:46;;;;;;;9.90;6.28;;;29.10;91.50;;;;;;4165566;28;20504;-68
2022/02/20 08:49:51;;;;;;;12.40;7.07;;;29.10;91.40;;;;;;4169598;28;20476;-67
2022/02/20 08:51:59;;;;;;;9.73;6.43;;;29.10;91.50;;;;;;4159509;28;20068;-67
2022/02/20 08:54:05;;;;;;;10.07;6.47;;;29.00;91.50;;;;;;4167232;28;20056;-67
2022/02/20 08:56:10;;;;;;;9.02;5.97;;;28.90;91.60;;;;;;4160890;28;20046;-67
2022/02/20 08:58:16;;;;;;;7.15;5.57;;;28.90;91.60;;;;;;4161073;28;20068;-67
2022/02/20 09:00:23;;;;;;;7.18;5.55;;;28.90;91.60;;;;;;4160216;28;20786;-68
2022/02/20 09:02:27;;;;;;;10.50;5.38;;;28.80;91.40;;;;;;4163525;28;20491;-68
2022/02/20 09:04:34;;;;;;;8.20;5.47;;;28.80;91.70;;;;;;4160869;28;20044;-68
2022/02/20 09:06:42;;;;;;;7.18;5.55;;;28.70;91.50;;;;;;4161686;28;20069;-68
2022/02/20 09:08:47;;;;;;;11.10;6.20;;;28.70;91.50;;;;;;4159087;28;20393;-68
2022/02/20 09:11:05;;;;;;;7.53;5.50;;;28.70;91.50;;;;;;4158136;28;20049;-67
2022/02/20 09:13:21;;;;;;;8.85;5.25;;;28.70;91.60;;;;;;4158321;28;20049;-68
2022/02/20 09:15:26;;;;;;;9.63;5.60;;;28.70;92.00;;;;;;4162185;28;20053;-68
2022/02/20 09:17:33;;;;;;;9.30;5.75;;;28.60;92.80;;;;;;4161061;28;20044;-68
2022/02/20 09:19:39;;;;;;;11.75;6.22;;;28.50;93.50;;;;;;4160651;28;20657;-68
2022/02/20 09:21:45;;;;;;;9.80;6.63;;;28.50;94.10;;;;;;4158834;28;20045;-68
2022/02/20 09:23:52;;;;;;;12.43;6.65;;;28.40;94.80;;;;;;4165618;28;20045;-68
2022/02/20 09:25:57;;;;;;;16.02;8.38;;;28.20;95.80;;;;;;4160762;28;20045;-67
2022/02/20 09:28:01;;;;;;;14.68;7.93;;;28.10;95.80;;;;;;4161473;28;20038;-68
2022/02/20 09:30:08;;;;;;;14.98;8.85;;;28.00;95.50;;;;;;4160689;28;20079;-68
2022/02/20 09:32:14;;;;;;;14.88;8.38;;;27.90;96.00;;;;;;4153261;28;20057;-68
2022/02/20 09:34:20;;;;;;;17.35;9.52;;;27.90;96.40;;;;;;4158027;28;20615;-68
2022/02/20 09:36:27;;;;;;;18.85;9.20;;;27.80;97.60;;;;;;4160975;28;20163;-68
2022/02/20 09:38:36;;;;;;;18.75;8.75;;;27.80;97.80;;;;;;4155280;28;20076;-68
2022/02/20 09:40:41;;;;;;;18.52;9.48;;;27.80;98.30;;;;;;4160793;28;20125;-67
2022/02/20 09:42:49;;;;;;;18.73;10.43;;;27.80;98.60;;;;;;4162735;28;20156;-68
2022/02/20 09:44:56;;;;;;;17.55;11.05;;;27.80;99.20;;;;;;4163258;28;20047;-68
2022/02/20 09:47:01;;;;;;;19.55;10.75;;;27.80;99.90;;;;;;4159931;28;20046;-67
2022/02/20 09:49:08;;;;;;;22.27;10.70;;;27.80;99.90;;;;;;4160702;28;20092;-67
2022/02/20 09:51:14;;;;;;;20.50;9.90;;;27.80;99.90;;;;;;4158489;28;20049;-67
2022/02/20 09:53:19;;;;;;;16.98;9.90;;;27.70;99.90;;;;;;4165626;28;20084;-68
2022/02/20 09:55:28;;;;;;;18.33;9.73;;;27.70;99.90;;;;;;4160551;28;20496;-68
2022/02/20 09:57:34;;;;;;;14.32;8.48;;;27.60;99.40;;;;;;4156075;28;20040;-67
2022/02/20 09:59:39;;;;;;;12.45;8.48;;;27.60;98.80;;;;;;4163777;28;20528;-68
2022/02/20 10:02:04;;;;;;;12.20;7.43;;;27.60;98.50;;;;;;4163664;28;20092;-67
2022/02/20 10:04:26;;;;;;;12.15;7.57;;;27.60;97.90;;;;;;4162794;28;20076;-67
2022/02/20 10:06:31;;;;;;;12.73;8.15;;;27.40;98.10;;;;;;4168053;28;20037;-68
2022/02/20 10:08:46;;;;;;;11.43;8.68;;;27.30;98.40;;;;;;4163898;28;20050;-69
2022/02/20 10:10:54;;;;;;;12.02;8.95;;;27.20;97.90;;;;;;4163553;28;20547;-68
2022/02/20 10:13:00;;;;;;;10.98;7.75;;;27.20;98.20;;;;;;4158345;28;20427;-69
2022/02/20 10:15:26;;;;;;;11.80;7.90;;;27.10;98.40;;;;;;4164502;28;20096;-68
2022/02/20 10:18:00;;;;;;;12.73;8.82;;;27.20;98.10;;;;;;4161472;28;20049;-67
2022/02/20 10:20:23;;;;;;;15.43;8.82;;;27.00;98.40;;;;;;4160877;28;20037;-68
2022/02/20 10:22:40;;;;;;;12.02;7.72;;;27.00;98.40;;;;;;4157805;28;20076;-67
2022/02/20 10:25:07;;;;;;;17.05;8.80;;;26.90;98.20;;;;;;4160844;28;20063;-67
2022/02/20 10:27:24;;;;;;;13.88;8.93;;;26.60;98.90;;;;;;4161061;28;20056;-68
2022/02/20 10:29:41;;;;;;;15.43;9.40;;;26.20;99.80;;;;;;4165110;28;20519;-68
2022/02/20 10:31:54;;;;;;;14.00;8.23;;;26.10;99.70;;;;;;4162195;28;20050;-68
2022/02/20 10:34:06;;;;;;;15.90;9.00;;;25.80;99.90;;;;;;4162868;28;20836;-68
2022/02/20 10:36:17;;;;;;;13.57;9.20;;;25.70;99.90;;;;;;4159197;28;20371;-68
2022/02/20 10:38:23;;;;;;;12.68;8.05;;;25.80;99.90;;;;;;4161349;28;20065;-69
2022/02/20 10:40:31;;;;;;;13.23;8.57;;;25.80;99.90;;;;;;4162523;28;20485;-68
2022/02/20 10:42:36;;;;;;;12.20;8.05;;;25.80;99.90;;;;;;4162063;28;20049;-69
2022/02/20 10:45:00;;;;;;;12.95;7.80;;;25.70;99.90;;;;;;4163629;28;20052;-68
2022/02/20 10:47:12;;;;;;;13.98;7.70;;;25.70;99.90;;;;;;4163625;28;20048;-68
2022/02/20 10:49:24;;;;;;;16.50;7.95;;;25.50;99.90;;;;;;4164358;28;20127;-71
2022/02/20 10:51:41;;;;;;;12.57;7.70;;;25.60;99.90;;;;;;4155421;28;20045;-65
2022/02/20 10:53:48;;;;;;;11.88;7.35;;;25.30;99.80;;;;;;4163995;28;20507;-69
2022/02/20 10:55:52;;;;;;;15.80;7.40;;;25.30;99.90;;;;;;4163390;28;20088;-70
2022/02/20 10:57:59;;;;;;;12.85;7.07;;;25.20;99.90;;;;;;4159127;28;20052;-69
2022/02/20 11:00:14;;;;;;;11.70;7.53;;;24.80;99.90;;;;;;4163842;28;20128;-69
2022/02/20 11:02:18;;;;;;;15.90;9.32;;;24.80;99.90;;;;;;4158100;28;20145;-68
2022/02/20 11:04:24;;;;;;;14.40;9.43;;;24.80;99.90;;;;;;4162368;28;20484;-70
2022/02/20 11:06:33;;;;;;;14.07;9.32;;;23.90;99.90;;;;;;4163367;28;20087;-69